sensor_id;sensor_type;location;lat;lon;timestamp;pressure;altitude;pressure_sealevel;temperature;humidity
69622;BME280;56841;55.964;37.674;2022-10-17T00:01:35;100656.81;;;6.84;62.57
69622;BME280;56841;55.964;37.674;2022-10-17T00:04:01;100657.44;;;6.88;62.31
69622;BME280;56841;55.964;37.674;2022-10-17T00:06:26;100655.63;;;6.88;62.49
69622;BME280;56841;55.964;37.674;2022-10-17T00:08:52;100647.16;;;6.85;62.45
69622;BME280;56841;55.964;37.674;2022-10-17T00:11:21;100647.16;;;6.85;62.51
69622;BME280;56841;55.964;37.674;2022-10-17T00:13:49;100634.41;;;6.80;62.72
69622;BME280;56841;55.964;37.674;2022-10-17T00:16:31;100633.53;;;6.80;62.66
69622;BME280;56841;55.964;37.674;2022-10-17T00:18:58;100638.91;;;6.78;62.66
69622;BME280;56841;55.964;37.674;2022-10-17T00:21:25;100624.00;;;6.79;62.56
69622;BME280;56841;55.964;37.674;2022-10-17T00:23:51;100630.81;;;6.81;62.59
69622;BME280;56841;55.964;37.674;2022-10-17T00:26:19;100627.44;;;6.79;62.68
69622;BME280;56841;55.964;37.674;2022-10-17T00:28:46;100622.09;;;6.81;62.79
69622;BME280;56841;55.964;37.674;2022-10-17T00:31:13;100610.16;;;6.77;62.91
69622;BME280;56841;55.964;37.674;2022-10-17T00:33:40;100614.94;;;6.83;62.68
69622;BME280;56841;55.964;37.674;2022-10-17T00:38:35;100608.84;;;6.82;62.77
69622;BME280;56841;55.964;37.674;2022-10-17T00:41:02;100603.13;;;6.77;62.88
69622;BME280;56841;55.964;37.674;2022-10-17T00:43:28;100597.97;;;6.76;62.90
69622;BME280;56841;55.964;37.674;2022-10-17T00:45:55;100600.00;;;6.72;63.20
69622;BME280;56841;55.964;37.674;2022-10-17T00:48:22;100589.66;;;6.71;63.11
69622;BME280;56841;55.964;37.674;2022-10-17T00:50:49;100579.38;;;6.79;63.03
69622;BME280;56841;55.964;37.674;2022-10-17T00:53:15;100582.00;;;6.79;62.86
69622;BME280;56841;55.964;37.674;2022-10-17T00:55:50;100578.91;;;6.74;63.01
69622;BME280;56841;55.964;37.674;2022-10-17T00:58:16;100551.56;;;6.76;62.97
69622;BME280;56841;55.964;37.674;2022-10-17T01:00:45;100571.03;;;6.74;63.39
69622;BME280;56841;55.964;37.674;2022-10-17T01:03:11;100570.31;;;6.72;63.45
69622;BME280;56841;55.964;37.674;2022-10-17T01:05:37;100563.63;;;6.79;63.15
69622;BME280;56841;55.964;37.674;2022-10-17T01:08:04;100564.94;;;6.73;63.14
69622;BME280;56841;55.964;37.674;2022-10-17T01:10:38;100555.03;;;6.77;63.42
69622;BME280;56841;55.964;37.674;2022-10-17T01:13:10;100548.25;;;6.74;63.37
69622;BME280;56841;55.964;37.674;2022-10-17T01:35:21;100541.19;;;6.75;63.48
69622;BME280;56841;55.964;37.674;2022-10-17T01:42:58;100519.13;;;6.66;63.66
69622;BME280;56841;55.964;37.674;2022-10-17T01:45:42;100515.44;;;6.69;63.60
69622;BME280;56841;55.964;37.674;2022-10-17T01:48:24;100507.19;;;6.73;63.83
69622;BME280;56841;55.964;37.674;2022-10-17T01:50:56;100501.09;;;6.73;63.60
69622;BME280;56841;55.964;37.674;2022-10-17T01:53:30;100504.69;;;6.72;63.42
69622;BME280;56841;55.964;37.674;2022-10-17T01:56:00;100499.91;;;6.77;63.34
69622;BME280;56841;55.964;37.674;2022-10-17T01:58:41;100510.06;;;6.70;63.62
69622;BME280;56841;55.964;37.674;2022-10-17T02:01:10;100508.38;;;6.69;63.44
69622;BME280;56841;55.964;37.674;2022-10-17T02:03:38;100493.47;;;6.70;63.76
69622;BME280;56841;55.964;37.674;2022-10-17T02:06:05;100501.59;;;6.67;63.73
69622;BME280;56841;55.964;37.674;2022-10-17T02:08:41;100496.81;;;6.72;63.46
69622;BME280;56841;55.964;37.674;2022-10-17T02:11:28;100501.59;;;6.67;63.68
69622;BME280;56841;55.964;37.674;2022-10-17T02:16:50;100489.66;;;6.62;63.83
69622;BME280;56841;55.964;37.674;2022-10-17T02:27:22;100499.69;;;6.57;64.28
69622;BME280;56841;55.964;37.674;2022-10-17T02:29:59;100491.81;;;6.57;64.43
69622;BME280;56841;55.964;37.674;2022-10-17T02:32:55;100490.63;;;6.50;64.57
69622;BME280;56841;55.964;37.674;2022-10-17T02:35:21;100494.34;;;6.48;64.79
69622;BME280;56841;55.964;37.674;2022-10-17T02:37:50;100480.63;;;6.44;64.65
69622;BME280;56841;55.964;37.674;2022-10-17T02:40:17;100482.28;;;6.45;64.60
69622;BME280;56841;55.964;37.674;2022-10-17T02:42:46;100460.47;;;6.45;64.78
69622;BME280;56841;55.964;37.674;2022-10-17T02:45:14;100481.44;;;6.45;64.64
69622;BME280;56841;55.964;37.674;2022-10-17T02:47:49;100466.53;;;6.45;64.66
69622;BME280;56841;55.964;37.674;2022-10-17T02:50:23;100477.03;;;6.45;64.56
69622;BME280;56841;55.964;37.674;2022-10-17T02:52:55;100470.97;;;6.45;64.67
69622;BME280;56841;55.964;37.674;2022-10-17T02:55:30;100466.09;;;6.40;64.79
69622;BME280;56841;55.964;37.674;2022-10-17T02:58:01;100461.66;;;6.40;65.06
69622;BME280;56841;55.964;37.674;2022-10-17T03:00:29;100461.66;;;6.40;65.09
69622;BME280;56841;55.964;37.674;2022-10-17T03:02:56;100442.72;;;6.37;64.96
69622;BME280;56841;55.964;37.674;2022-10-17T03:05:24;100447.47;;;6.32;65.30
69622;BME280;56841;55.964;37.674;2022-10-17T03:07:52;100447.34;;;6.33;65.21
69622;BME280;56841;55.964;37.674;2022-10-17T03:10:19;100449.03;;;6.34;65.21
69622;BME280;56841;55.964;37.674;2022-10-17T03:12:46;100447.22;;;6.35;65.25
69622;BME280;56841;55.964;37.674;2022-10-17T03:15:12;100449.03;;;6.34;65.36
69622;BME280;56841;55.964;37.674;2022-10-17T03:17:39;100440.31;;;6.34;65.29
69622;BME280;56841;55.964;37.674;2022-10-17T03:20:07;100441.38;;;6.31;65.31
69622;BME280;56841;55.964;37.674;2022-10-17T03:22:33;100430.78;;;6.33;65.45
69622;BME280;56841;55.964;37.674;2022-10-17T03:25:00;100423.75;;;6.33;65.43
69622;BME280;56841;55.964;37.674;2022-10-17T03:27:29;100419.44;;;6.32;65.39
69622;BME280;56841;55.964;37.674;2022-10-17T03:29:55;100413.25;;;6.33;65.34
69622;BME280;56841;55.964;37.674;2022-10-17T03:32:21;100408.63;;;6.26;65.76
69622;BME280;56841;55.964;37.674;2022-10-17T03:34:47;100425.88;;;6.28;65.47
69622;BME280;56841;55.964;37.674;2022-10-17T03:37:13;100412.19;;;6.25;65.78
69622;BME280;56841;55.964;37.674;2022-10-17T03:39:40;100409.47;;;6.26;65.77
69622;BME280;56841;55.964;37.674;2022-10-17T03:42:06;100412.19;;;6.25;65.79
69622;BME280;56841;55.964;37.674;2022-10-17T03:44:32;100399.06;;;6.25;65.95
69622;BME280;56841;55.964;37.674;2022-10-17T03:46:58;100400.88;;;6.24;65.77
69622;BME280;56841;55.964;37.674;2022-10-17T03:49:26;100408.28;;;6.19;66.06
69622;BME280;56841;55.964;37.674;2022-10-17T03:51:52;100405.38;;;6.22;66.07
69622;BME280;56841;55.964;37.674;2022-10-17T03:54:18;100389.41;;;6.25;66.00
69622;BME280;56841;55.964;37.674;2022-10-17T03:56:44;100399.66;;;6.28;65.98
69622;BME280;56841;55.964;37.674;2022-10-17T03:59:14;100388.94;;;6.31;65.66
69622;BME280;56841;55.964;37.674;2022-10-17T04:01:42;100382.38;;;6.37;65.57
69622;BME280;56841;55.964;37.674;2022-10-17T04:04:09;100387.13;;;6.32;65.89
69622;BME280;56841;55.964;37.674;2022-10-17T04:06:36;100381.66;;;6.35;65.66
69622;BME280;56841;55.964;37.674;2022-10-17T04:09:04;100377.72;;;6.40;65.50
69622;BME280;56841;55.964;37.674;2022-10-17T04:11:40;100372.00;;;6.35;65.66
69622;BME280;56841;55.964;37.674;2022-10-17T04:14:06;100371.66;;;6.40;65.66
69622;BME280;56841;55.964;37.674;2022-10-17T04:16:32;100375.19;;;6.39;65.52
69622;BME280;56841;55.964;37.674;2022-10-17T04:19:03;100373.88;;;6.45;65.38
69622;BME280;56841;55.964;37.674;2022-10-17T04:21:35;100359.94;;;6.44;65.25
69622;BME280;56841;55.964;37.674;2022-10-17T04:24:05;100359.94;;;6.44;65.33
69622;BME280;56841;55.964;37.674;2022-10-17T04:26:42;100365.63;;;6.49;65.28
69622;BME280;56841;55.964;37.674;2022-10-17T04:29:08;100361.34;;;6.48;65.09
69622;BME280;56841;55.964;37.674;2022-10-17T04:31:34;100355.28;;;6.48;64.95
69622;BME280;56841;55.964;37.674;2022-10-17T04:34:14;100359.91;;;6.55;64.94
69622;BME280;56841;55.964;37.674;2022-10-17T04:36:40;100351.34;;;6.53;64.95
69622;BME280;56841;55.964;37.674;2022-10-17T04:39:06;100343.19;;;6.56;64.96
69622;BME280;56841;55.964;37.674;2022-10-17T04:41:32;100336.53;;;6.52;65.11
69622;BME280;56841;55.964;37.674;2022-10-17T04:43:58;100332.97;;;6.53;64.96
69622;BME280;56841;55.964;37.674;2022-10-17T04:46:25;100337.38;;;6.53;65.16
69622;BME280;56841;55.964;37.674;2022-10-17T04:48:52;100344.16;;;6.55;65.04
69622;BME280;56841;55.964;37.674;2022-10-17T04:51:18;100349.16;;;6.58;64.97
69622;BME280;56841;55.964;37.674;2022-10-17T04:54:03;100333.31;;;6.60;64.94
69622;BME280;56841;55.964;37.674;2022-10-17T04:56:30;100340.09;;;6.62;64.89
69622;BME280;56841;55.964;37.674;2022-10-17T04:58:57;100340.31;;;6.71;64.53
69622;BME280;56841;55.964;37.674;2022-10-17T05:01:24;100327.44;;;6.68;64.50
69622;BME280;56841;55.964;37.674;2022-10-17T05:03:53;100317.88;;;6.67;64.82
69622;BME280;56841;55.964;37.674;2022-10-17T05:06:23;100323.59;;;6.72;64.54
69622;BME280;56841;55.964;37.674;2022-10-17T05:09:15;100323.84;;;6.69;64.84
69622;BME280;56841;55.964;37.674;2022-10-17T05:11:42;100324.81;;;6.68;64.93
69622;BME280;56841;55.964;37.674;2022-10-17T05:14:08;100323.84;;;6.69;65.73
69622;BME280;56841;55.964;37.674;2022-10-17T05:16:34;100316.59;;;6.61;67.35
69622;BME280;56841;55.964;37.674;2022-10-17T05:19:00;100312.91;;;6.52;66.95
69622;BME280;56841;55.964;37.674;2022-10-17T05:21:31;100309.72;;;6.49;67.61
69622;BME280;56841;55.964;37.674;2022-10-17T05:23:58;100313.69;;;6.43;67.33
69622;BME280;56841;55.964;37.674;2022-10-17T05:26:24;100318.78;;;6.45;67.55
69622;BME280;56841;55.964;37.674;2022-10-17T05:28:51;100327.25;;;6.48;67.59
69622;BME280;56841;55.964;37.674;2022-10-17T05:31:19;100310.31;;;6.52;67.46
69622;BME280;56841;55.964;37.674;2022-10-17T05:33:45;100321.38;;;6.56;67.35
69622;BME280;56841;55.964;37.674;2022-10-17T05:36:15;100323.75;;;6.59;66.87
69622;BME280;56841;55.964;37.674;2022-10-17T05:38:42;100313.72;;;6.64;67.04
69622;BME280;56841;55.964;37.674;2022-10-17T05:41:09;100301.88;;;6.70;66.66
69622;BME280;56841;55.964;37.674;2022-10-17T05:43:36;100305.94;;;6.74;66.51
69622;BME280;56841;55.964;37.674;2022-10-17T05:46:04;100291.34;;;6.81;65.99
69622;BME280;56841;55.964;37.674;2022-10-17T05:48:31;100298.84;;;6.85;65.72
69622;BME280;56841;55.964;37.674;2022-10-17T05:50:59;100296.78;;;6.89;65.32
69622;BME280;56841;55.964;37.674;2022-10-17T05:53:26;100290.28;;;7.04;65.17
69622;BME280;56841;55.964;37.674;2022-10-17T05:55:58;100289.41;;;7.04;64.67
69622;BME280;56841;55.964;37.674;2022-10-17T05:58:25;100288.91;;;7.10;64.52
69622;BME280;56841;55.964;37.674;2022-10-17T06:00:59;100288.22;;;7.08;64.02
69622;BME280;56841;55.964;37.674;2022-10-17T06:03:26;100293.72;;;7.26;63.76
69622;BME280;56841;55.964;37.674;2022-10-17T06:05:52;100295.38;;;7.27;63.75
69622;BME280;56841;55.964;37.674;2022-10-17T06:08:19;100290.69;;;7.30;63.70
69622;BME280;56841;55.964;37.674;2022-10-17T06:10:49;100303.47;;;7.35;63.51
69622;BME280;56841;55.964;37.674;2022-10-17T06:13:16;100297.66;;;7.41;63.39
69622;BME280;56841;55.964;37.674;2022-10-17T06:15:45;100296.72;;;7.42;63.62
69622;BME280;56841;55.964;37.674;2022-10-17T06:18:11;100297.28;;;7.46;63.49
69622;BME280;56841;55.964;37.674;2022-10-17T06:20:39;100297.53;;;7.43;63.94
69622;BME280;56841;55.964;37.674;2022-10-17T06:23:05;100281.47;;;7.36;63.19
69622;BME280;56841;55.964;37.674;2022-10-17T06:26:02;100273.91;;;7.43;63.45
69622;BME280;56841;55.964;37.674;2022-10-17T06:28:29;100278.28;;;7.32;63.66
69622;BME280;56841;55.964;37.674;2022-10-17T06:30:56;100284.59;;;7.30;63.63
69622;BME280;56841;55.964;37.674;2022-10-17T06:33:22;100288.22;;;7.29;63.84
69622;BME280;56841;55.964;37.674;2022-10-17T06:35:52;100287.28;;;7.40;63.62
69622;BME280;56841;55.964;37.674;2022-10-17T06:38:20;100276.25;;;7.46;63.45
69622;BME280;56841;55.964;37.674;2022-10-17T06:40:47;100263.34;;;7.33;63.56
69622;BME280;56841;55.964;37.674;2022-10-17T06:43:13;100269.72;;;7.40;63.71
69622;BME280;56841;55.964;37.674;2022-10-17T06:45:58;100254.28;;;7.47;63.50
69622;BME280;56841;55.964;37.674;2022-10-17T06:48:31;100236.84;;;7.55;63.32
69622;BME280;56841;55.964;37.674;2022-10-17T06:51:17;100245.34;;;7.59;62.73
69622;BME280;56841;55.964;37.674;2022-10-17T06:53:49;100241.94;;;7.78;62.65
69622;BME280;56841;55.964;37.674;2022-10-17T06:56:27;100244.06;;;7.94;62.14
69622;BME280;56841;55.964;37.674;2022-10-17T06:59:10;100235.75;;;7.98;62.24
69622;BME280;56841;55.964;37.674;2022-10-17T07:01:38;100243.09;;;8.04;61.99
69622;BME280;56841;55.964;37.674;2022-10-17T07:04:04;100228.41;;;8.02;61.93
69622;BME280;56841;55.964;37.674;2022-10-17T07:06:30;100222.03;;;7.95;62.22
69622;BME280;56841;55.964;37.674;2022-10-17T07:09:01;100238.66;;;7.95;62.27
69622;BME280;56841;55.964;37.674;2022-10-17T07:11:28;100250.25;;;7.93;62.34
69622;BME280;56841;55.964;37.674;2022-10-17T07:13:54;100241.41;;;7.94;62.33
69622;BME280;56841;55.964;37.674;2022-10-17T07:16:21;100227.84;;;7.89;62.37
69622;BME280;56841;55.964;37.674;2022-10-17T07:18:53;100230.06;;;7.93;62.37
69622;BME280;56841;55.964;37.674;2022-10-17T07:21:19;100229.94;;;7.95;62.49
69622;BME280;56841;55.964;37.674;2022-10-17T07:23:45;100225.47;;;7.86;62.79
69622;BME280;56841;55.964;37.674;2022-10-17T07:26:14;100213.03;;;7.88;62.82
69622;BME280;56841;55.964;37.674;2022-10-17T07:28:42;100229.50;;;7.80;62.97
69622;BME280;56841;55.964;37.674;2022-10-17T07:31:29;100232.38;;;7.77;63.18
69622;BME280;56841;55.964;37.674;2022-10-17T07:33:55;100220.19;;;7.76;63.38
69622;BME280;56841;55.964;37.674;2022-10-17T07:36:21;100195.03;;;7.83;63.33
69622;BME280;56841;55.964;37.674;2022-10-17T07:38:47;100201.94;;;7.74;63.46
69622;BME280;56841;55.964;37.674;2022-10-17T07:41:13;100190.06;;;7.80;63.63
69622;BME280;56841;55.964;37.674;2022-10-17T07:43:39;100181.47;;;7.78;63.87
69622;BME280;56841;55.964;37.674;2022-10-17T07:46:07;100189.22;;;7.79;64.21
69622;BME280;56841;55.964;37.674;2022-10-17T07:48:33;100195.72;;;7.85;64.35
69622;BME280;56841;55.964;37.674;2022-10-17T07:51:04;100197.69;;;7.83;64.70
69622;BME280;56841;55.964;37.674;2022-10-17T07:53:30;100210.50;;;7.67;65.51
69622;BME280;56841;55.964;37.674;2022-10-17T07:55:56;100203.44;;;7.67;65.75
69622;BME280;56841;55.964;37.674;2022-10-17T07:58:22;100217.56;;;7.66;65.87
69622;BME280;56841;55.964;37.674;2022-10-17T08:00:48;100218.66;;;7.64;66.15
69622;BME280;56841;55.964;37.674;2022-10-17T08:03:15;100218.50;;;7.65;66.41
69622;BME280;56841;55.964;37.674;2022-10-17T08:05:41;100228.59;;;7.60;66.59
69622;BME280;56841;55.964;37.674;2022-10-17T08:08:07;100228.19;;;7.65;66.81
69622;BME280;56841;55.964;37.674;2022-10-17T08:10:32;100217.69;;;7.74;66.87
69622;BME280;56841;55.964;37.674;2022-10-17T08:12:58;100215.50;;;7.70;66.66
69622;BME280;56841;55.964;37.674;2022-10-17T08:15:25;100207.75;;;7.78;66.65
69622;BME280;56841;55.964;37.674;2022-10-17T08:17:51;100208.72;;;7.77;66.93
69622;BME280;56841;55.964;37.674;2022-10-17T08:20:18;100198.88;;;7.79;68.60
69622;BME280;56841;55.964;37.674;2022-10-17T08:22:50;100191.25;;;7.56;69.80
69622;BME280;56841;55.964;37.674;2022-10-17T08:25:17;100190.69;;;7.53;70.26
69622;BME280;56841;55.964;37.674;2022-10-17T08:27:42;100218.63;;;7.54;69.71
69622;BME280;56841;55.964;37.674;2022-10-17T08:30:08;100206.72;;;7.50;69.80
69622;BME280;56841;55.964;37.674;2022-10-17T08:32:34;100205.47;;;7.54;69.22
69622;BME280;56841;55.964;37.674;2022-10-17T08:35:00;100194.28;;;7.62;69.12
69622;BME280;56841;55.964;37.674;2022-10-17T08:37:26;100153.50;;;7.67;68.89
69622;BME280;56841;55.964;37.674;2022-10-17T08:39:54;100168.56;;;7.65;68.65
69622;BME280;56841;55.964;37.674;2022-10-17T08:47:44;100177.88;;;7.98;67.59
69622;BME280;56841;55.964;37.674;2022-10-17T08:50:44;100179.97;;;7.95;67.85
69622;BME280;56841;55.964;37.674;2022-10-17T08:55:50;100177.59;;;7.92;68.03
69622;BME280;56841;55.964;37.674;2022-10-17T08:58:22;100184.66;;;7.91;68.36
69622;BME280;56841;55.964;37.674;2022-10-17T09:03:43;100159.47;;;7.89;69.67
69622;BME280;56841;55.964;37.674;2022-10-17T09:06:22;100169.56;;;7.74;72.22
69622;BME280;56841;55.964;37.674;2022-10-17T09:11:55;100193.03;;;7.16;77.13
69622;BME280;56841;55.964;37.674;2022-10-17T09:14:39;100180.88;;;6.94;80.14
69622;BME280;56841;55.964;37.674;2022-10-17T09:20:07;100227.00;;;6.65;84.94
69622;BME280;56841;55.964;37.674;2022-10-17T09:25:18;100214.38;;;6.59;87.08
69622;BME280;56841;55.964;37.674;2022-10-17T09:30:58;100189.94;;;6.59;88.45
69622;BME280;56841;55.964;37.674;2022-10-17T09:33:35;100148.72;;;6.71;88.88
69622;BME280;56841;55.964;37.674;2022-10-17T09:36:07;100180.78;;;6.74;89.37
69622;BME280;56841;55.964;37.674;2022-10-17T09:38:43;100176.38;;;6.75;88.42
69622;BME280;56841;55.964;37.674;2022-10-17T09:41:17;100181.09;;;6.81;87.81
69622;BME280;56841;55.964;37.674;2022-10-17T09:43:43;100186.47;;;6.79;88.06
69622;BME280;56841;55.964;37.674;2022-10-17T09:48:49;100161.75;;;6.82;87.41
69622;BME280;56841;55.964;37.674;2022-10-17T09:51:17;100147.88;;;6.91;86.62
69622;BME280;56841;55.964;37.674;2022-10-17T09:53:48;100150.22;;;6.94;87.54
69622;BME280;56841;55.964;37.674;2022-10-17T09:56:17;100150.91;;;6.96;87.64
69622;BME280;56841;55.964;37.674;2022-10-17T09:58:48;100142.63;;;6.91;87.11
69622;BME280;56841;55.964;37.674;2022-10-17T10:01:37;100140.66;;;6.93;87.57
69622;BME280;56841;55.964;37.674;2022-10-17T10:04:15;100144.00;;;6.95;87.68
69622;BME280;56841;55.964;37.674;2022-10-17T10:07:04;100131.56;;;6.87;87.47
69622;BME280;56841;55.964;37.674;2022-10-17T10:09:32;100140.25;;;6.88;87.84
69622;BME280;56841;55.964;37.674;2022-10-17T10:12:03;100131.56;;;6.97;87.98
69622;BME280;56841;55.964;37.674;2022-10-17T10:14:30;100122.69;;;6.88;88.19
69622;BME280;56841;55.964;37.674;2022-10-17T10:16:59;100124.25;;;6.91;87.99
69622;BME280;56841;55.964;37.674;2022-10-17T10:19:36;100112.75;;;6.92;88.93
69622;BME280;56841;55.964;37.674;2022-10-17T10:22:05;100095.78;;;6.96;88.82
69622;BME280;56841;55.964;37.674;2022-10-17T10:24:31;100116.53;;;6.99;88.61
69622;BME280;56841;55.964;37.674;2022-10-17T10:27:02;100112.81;;;7.02;88.39
69622;BME280;56841;55.964;37.674;2022-10-17T10:29:48;100118.06;;;7.02;88.62
69622;BME280;56841;55.964;37.674;2022-10-17T10:32:24;100108.13;;;7.05;88.71
69622;BME280;56841;55.964;37.674;2022-10-17T10:37:27;100110.88;;;7.04;88.70
69622;BME280;56841;55.964;37.674;2022-10-17T10:39:57;100101.91;;;7.06;88.82
69622;BME280;56841;55.964;37.674;2022-10-17T10:42:24;100088.34;;;7.11;88.59
69622;BME280;56841;55.964;37.674;2022-10-17T10:44:53;100092.38;;;7.05;88.85
69622;BME280;56841;55.964;37.674;2022-10-17T10:47:22;100105.38;;;7.17;88.89
69622;BME280;56841;55.964;37.674;2022-10-17T10:49:51;100093.53;;;7.22;88.89
69622;BME280;56841;55.964;37.674;2022-10-17T10:52:28;100089.38;;;7.20;88.50
69622;BME280;56841;55.964;37.674;2022-10-17T10:54:58;100079.00;;;7.18;88.78
69622;BME280;56841;55.964;37.674;2022-10-17T10:57:31;100103.16;;;7.12;88.95
69622;BME280;56841;55.964;37.674;2022-10-17T11:00:11;100094.47;;;7.11;89.50
69622;BME280;56841;55.964;37.674;2022-10-17T11:05:48;100100.41;;;7.13;89.86
69622;BME280;56841;55.964;37.674;2022-10-17T11:08:22;100103.84;;;7.04;90.26
69622;BME280;56841;55.964;37.674;2022-10-17T11:11:12;100111.47;;;7.17;90.01
69622;BME280;56841;55.964;37.674;2022-10-17T11:13:48;100103.72;;;7.16;90.12
69622;BME280;56841;55.964;37.674;2022-10-17T11:16:32;100100.66;;;7.10;90.91
69622;BME280;56841;55.964;37.674;2022-10-17T11:19:25;100101.78;;;7.18;90.75
69622;BME280;56841;55.964;37.674;2022-10-17T11:24:28;100099.16;;;7.18;90.90
69622;BME280;56841;55.964;37.674;2022-10-17T11:27:03;100086.31;;;7.24;91.08
69622;BME280;56841;55.964;37.674;2022-10-17T11:29:34;100083.84;;;7.23;91.57
69622;BME280;56841;55.964;37.674;2022-10-17T11:32:05;100068.34;;;7.20;92.19
69622;BME280;56841;55.964;37.674;2022-10-17T11:34:41;100073.59;;;7.20;92.84
69622;BME280;56841;55.964;37.674;2022-10-17T11:37:23;100062.13;;;7.21;93.33
69622;BME280;56841;55.964;37.674;2022-10-17T11:39:59;100047.59;;;7.17;93.42
69622;BME280;56841;55.964;37.674;2022-10-17T11:42:33;100055.38;;;7.28;93.03
69622;BME280;56841;55.964;37.674;2022-10-17T11:45:08;100051.38;;;7.33;92.56
69622;BME280;56841;55.964;37.674;2022-10-17T11:47:46;100037.53;;;7.31;93.34
69622;BME280;56841;55.964;37.674;2022-10-17T11:52:45;100052.72;;;7.28;94.09
69622;BME280;56841;55.964;37.674;2022-10-17T11:55:21;100032.56;;;7.38;93.94
69622;BME280;56841;55.964;37.674;2022-10-17T12:00:33;100021.22;;;7.28;94.54
69622;BME280;56841;55.964;37.674;2022-10-17T12:03:39;100020.94;;;7.31;95.03
69622;BME280;56841;55.964;37.674;2022-10-17T12:09:10;100062.56;;;7.26;96.07
69622;BME280;56841;55.964;37.674;2022-10-17T12:11:48;100064.22;;;7.27;96.74
69622;BME280;56841;55.964;37.674;2022-10-17T12:14:40;100052.91;;;7.36;96.47
69622;BME280;56841;55.964;37.674;2022-10-17T12:22:46;100057.63;;;7.42;96.64
69622;BME280;56841;55.964;37.674;2022-10-17T12:25:30;100072.41;;;7.43;96.84
69622;BME280;56841;55.964;37.674;2022-10-17T12:28:16;100073.25;;;7.44;96.81
69622;BME280;56841;55.964;37.674;2022-10-17T12:33:32;100068.53;;;7.47;96.90
69622;BME280;56841;55.964;37.674;2022-10-17T12:54:44;100117.66;;;7.56;97.31
69622;BME280;56841;55.964;37.674;2022-10-17T12:59:46;100111.28;;;7.49;98.31
69622;BME280;56841;55.964;37.674;2022-10-17T13:02:19;100121.66;;;7.60;97.99
69622;BME280;56841;55.964;37.674;2022-10-17T13:04:47;100121.13;;;7.57;98.75
69622;BME280;56841;55.964;37.674;2022-10-17T13:07:18;100124.97;;;7.53;99.10
69622;BME280;56841;55.964;37.674;2022-10-17T13:09:45;100123.84;;;7.55;99.21
69622;BME280;56841;55.964;37.674;2022-10-17T13:12:16;100123.19;;;7.53;99.55
69622;BME280;56841;55.964;37.674;2022-10-17T13:14:45;100116.69;;;7.57;99.91
69622;BME280;56841;55.964;37.674;2022-10-17T13:17:26;100119.56;;;7.54;99.93
69622;BME280;56841;55.964;37.674;2022-10-17T13:19:53;100112.53;;;7.55;100.00
69622;BME280;56841;55.964;37.674;2022-10-17T13:22:25;100108.94;;;7.66;99.90
69622;BME280;56841;55.964;37.674;2022-10-17T13:25:07;100093.88;;;7.68;99.86
69622;BME280;56841;55.964;37.674;2022-10-17T13:27:36;100090.84;;;7.63;100.00
69622;BME280;56841;55.964;37.674;2022-10-17T13:30:21;100085.84;;;7.59;100.00
69622;BME280;56841;55.964;37.674;2022-10-17T13:32:47;100080.44;;;7.61;100.00
69622;BME280;56841;55.964;37.674;2022-10-17T13:35:16;100071.47;;;7.64;100.00
69622;BME280;56841;55.964;37.674;2022-10-17T13:37:44;100074.38;;;7.70;99.65
69622;BME280;56841;55.964;37.674;2022-10-17T13:40:22;100076.84;;;7.72;99.50
69622;BME280;56841;55.964;37.674;2022-10-17T13:42:49;100063.03;;;7.70;99.48
69622;BME280;56841;55.964;37.674;2022-10-17T13:47:49;100056.81;;;7.71;98.91
69622;BME280;56841;55.964;37.674;2022-10-17T13:50:24;100054.44;;;7.68;99.17
69622;BME280;56841;55.964;37.674;2022-10-17T13:53:23;100041.56;;;7.65;98.76
69622;BME280;56841;55.964;37.674;2022-10-17T13:58:22;100042.97;;;7.69;98.23
69622;BME280;56841;55.964;37.674;2022-10-17T14:00:48;100054.44;;;7.68;98.73
69622;BME280;56841;55.964;37.674;2022-10-17T14:03:21;100049.75;;;7.71;97.75
69622;BME280;56841;55.964;37.674;2022-10-17T14:08:37;100043.94;;;7.77;97.31
69622;BME280;56841;55.964;37.674;2022-10-17T14:11:14;100048.38;;;7.77;97.44
69622;BME280;56841;55.964;37.674;2022-10-17T14:13:40;100051.81;;;7.77;97.08
69622;BME280;56841;55.964;37.674;2022-10-17T14:16:06;100042.28;;;7.76;97.14
69622;BME280;56841;55.964;37.674;2022-10-17T14:18:36;100037.97;;;7.75;97.26
69622;BME280;56841;55.964;37.674;2022-10-17T14:21:03;100038.25;;;7.72;97.51
69622;BME280;56841;55.964;37.674;2022-10-17T14:26:08;100053.47;;;7.78;97.24
69622;BME280;56841;55.964;37.674;2022-10-17T14:28:36;100055.44;;;7.76;97.32
69622;BME280;56841;55.964;37.674;2022-10-17T14:31:29;100064.69;;;7.80;96.79
69622;BME280;56841;55.964;37.674;2022-10-17T14:33:56;100055.16;;;7.79;97.07
69622;BME280;56841;55.964;37.674;2022-10-17T14:36:42;100047.81;;;7.83;96.74
69622;BME280;56841;55.964;37.674;2022-10-17T14:39:19;100048.22;;;7.78;96.93
69622;BME280;56841;55.964;37.674;2022-10-17T14:41:48;100040.47;;;7.77;97.18
69622;BME280;56841;55.964;37.674;2022-10-17T14:44:30;100017.91;;;7.74;97.65
69622;BME280;56841;55.964;37.674;2022-10-17T14:47:03;100018.34;;;7.70;98.30
69622;BME280;56841;55.964;37.674;2022-10-17T14:49:39;100028.59;;;7.73;98.07
69622;BME280;56841;55.964;37.674;2022-10-17T14:54:46;100037.97;;;7.75;98.05
69622;BME280;56841;55.964;37.674;2022-10-17T14:59:44;100062.34;;;7.77;98.35
69622;BME280;56841;55.964;37.674;2022-10-17T15:02:10;100052.66;;;7.78;98.41
69622;BME280;56841;55.964;37.674;2022-10-17T15:04:36;100057.34;;;7.84;97.93
69622;BME280;56841;55.964;37.674;2022-10-17T15:07:02;100050.16;;;7.76;98.76
69622;BME280;56841;55.964;37.674;2022-10-17T15:09:28;100071.75;;;7.80;98.30
69622;BME280;56841;55.964;37.674;2022-10-17T15:12:01;100065.66;;;7.79;98.55
69622;BME280;56841;55.964;37.674;2022-10-17T15:14:28;100066.22;;;7.83;98.88